Portada
METAR-TAF:

METAR-TAF

Aeroports :

Carnarvon, Austràlia

latitud: 24-52-50S, longitud: 113-40-20E, altitud: 4 m

Observació

L'informe es va fer fa 21 minuts, a les 16:00 UTC
Vent 18 kt del Sud/Sud-Est
Temperatura 17°C
Humitat 59%
Pressió 1020 hPa
Visibilitat 10 km o més

METAR: YCAR 191600Z AUTO 15018KT 9999 // NCD 17/09 Q1020

Hora: 00:21 (16:21 UTC)


TAF: manca

Observacions i pronòstics meteorològics de més de 4000 aeroports (METAR i TAF).

Les estacions disponibles són els punts grocs i vermells al mapa.

Posi el ratolí al punt desitjat per veure el nom de l'estació.

Feu clic per veure les observacions i els pronòstics meteorològics.

Per canviar el mapa: feu clic els botons verds amb una creu de color negre per apropar; al botó verd amb un guió per allunyar la imatge; o en les fletxes verdes per a mapes adjacents.


METAR-TAF: